sensor_id;sensor_type;location;lat;lon;timestamp;pressure;altitude;pressure_sealevel;temperature;humidity
9189;BME280;34313;50.780;6.084;2023-05-22T00:00:05;99357.97;;;15.67;nan
9189;BME280;34313;50.780;6.084;2023-05-22T00:02:35;99362.09;;;15.71;nan
9189;BME280;34313;50.780;6.084;2023-05-22T00:05:10;99370.06;;;15.71;nan
9189;BME280;34313;50.780;6.084;2023-05-22T00:07:37;99365.00;;;15.68;nan
9189;BME280;34313;50.780;6.084;2023-05-22T00:10:03;99366.06;;;15.65;nan
9189;BME280;34313;50.780;6.084;2023-05-22T00:12:28;99360.16;;;15.62;nan
9189;BME280;34313;50.780;6.084;2023-05-22T00:14:54;99351.59;;;15.58;nan
9189;BME280;34313;50.780;6.084;2023-05-22T00:17:19;99350.28;;;15.53;nan
9189;BME280;34313;50.780;6.084;2023-05-22T00:19:45;99363.34;;;15.56;nan
9189;BME280;34313;50.780;6.084;2023-05-22T00:22:10;99356.91;;;15.58;nan
9189;BME280;34313;50.780;6.084;2023-05-22T00:24:35;99357.19;;;15.55;nan
9189;BME280;34313;50.780;6.084;2023-05-22T00:27:01;99349.34;;;15.54;nan
9189;BME280;34313;50.780;6.084;2023-05-22T00:29:26;99342.56;;;15.49;nan
9189;BME280;34313;50.780;6.084;2023-05-22T00:31:51;99350.41;;;15.51;nan
9189;BME280;34313;50.780;6.084;2023-05-22T00:34:18;99354.19;;;15.48;nan
9189;BME280;34313;50.780;6.084;2023-05-22T00:36:43;99350.53;;;15.49;nan
9189;BME280;34313;50.780;6.084;2023-05-22T00:39:08;99343.44;;;15.50;nan
9189;BME280;34313;50.780;6.084;2023-05-22T00:41:34;99347.63;;;15.53;nan
9189;BME280;34313;50.780;6.084;2023-05-22T00:44:00;99345.38;;;15.48;nan
9189;BME280;34313;50.780;6.084;2023-05-22T00:46:25;99355.25;;;15.46;nan
9189;BME280;34313;50.780;6.084;2023-05-22T00:48:50;99353.72;;;15.43;nan
9189;BME280;34313;50.780;6.084;2023-05-22T00:51:20;99344.91;;;15.43;nan
9189;BME280;34313;50.780;6.084;2023-05-22T00:53:46;99347.69;;;15.41;nan
9189;BME280;34313;50.780;6.084;2023-05-22T00:56:12;99350.47;;;15.40;nan
9189;BME280;34313;50.780;6.084;2023-05-22T00:58:39;99354.31;;;15.36;nan
9189;BME280;34313;50.780;6.084;2023-05-22T01:01:06;99358.06;;;15.33;nan
9189;BME280;34313;50.780;6.084;2023-05-22T01:03:36;99360.97;;;15.30;nan
9189;BME280;34313;50.780;6.084;2023-05-22T01:06:09;99361.19;;;15.27;nan
9189;BME280;34313;50.780;6.084;2023-05-22T01:08:34;99360.59;;;15.23;nan
9189;BME280;34313;50.780;6.084;2023-05-22T01:11:04;99357.22;;;15.21;nan
9189;BME280;34313;50.780;6.084;2023-05-22T01:19:38;99354.09;;;15.16;nan
9189;BME280;34313;50.780;6.084;2023-05-22T01:22:30;99347.25;;;15.13;nan
9189;BME280;34313;50.780;6.084;2023-05-22T01:28:10;99348.69;;;15.06;nan
9189;BME280;34313;50.780;6.084;2023-05-22T01:33:20;99356.91;;;15.03;nan
9189;BME280;34313;50.780;6.084;2023-05-22T01:35:51;99352.69;;;15.01;nan
9189;BME280;34313;50.780;6.084;2023-05-22T01:38:18;99350.50;;;14.94;nan
9189;BME280;34313;50.780;6.084;2023-05-22T01:40:45;99352.81;;;14.99;nan
9189;BME280;34313;50.780;6.084;2023-05-22T01:43:12;99345.78;;;14.98;nan
9189;BME280;34313;50.780;6.084;2023-05-22T01:45:37;99351.22;;;14.97;nan
9189;BME280;34313;50.780;6.084;2023-05-22T01:48:03;99351.72;;;14.90;nan
9189;BME280;34313;50.780;6.084;2023-05-22T01:50:28;99352.91;;;14.86;nan
9189;BME280;34313;50.780;6.084;2023-05-22T02:01:08;99359.66;;;14.79;nan
9189;BME280;34313;50.780;6.084;2023-05-22T02:03:35;99355.81;;;14.72;nan
9189;BME280;34313;50.780;6.084;2023-05-22T02:06:05;99355.91;;;14.70;nan
9189;BME280;34313;50.780;6.084;2023-05-22T02:08:32;99358.81;;;14.67;nan
9189;BME280;34313;50.780;6.084;2023-05-22T02:10:58;99355.69;;;14.62;nan
9189;BME280;34313;50.780;6.084;2023-05-22T02:13:25;99363.75;;;14.61;nan
9189;BME280;34313;50.780;6.084;2023-05-22T02:15:50;99360.25;;;14.60;nan
9189;BME280;34313;50.780;6.084;2023-05-22T02:18:15;99360.47;;;14.57;nan
9189;BME280;34313;50.780;6.084;2023-05-22T02:20:41;99358.75;;;14.56;nan
9189;BME280;34313;50.780;6.084;2023-05-22T02:23:07;99361.91;;;14.50;nan
9189;BME280;34313;50.780;6.084;2023-05-22T02:25:33;99369.09;;;14.48;nan
9189;BME280;34313;50.780;6.084;2023-05-22T02:27:58;99360.66;;;14.43;nan
9189;BME280;34313;50.780;6.084;2023-05-22T02:30:23;99368.75;;;14.41;nan
9189;BME280;34313;50.780;6.084;2023-05-22T02:32:49;99352.84;;;14.41;nan
9189;BME280;34313;50.780;6.084;2023-05-22T02:35:15;99358.75;;;14.45;nan
9189;BME280;34313;50.780;6.084;2023-05-22T02:37:40;99362.25;;;14.45;nan
9189;BME280;34313;50.780;6.084;2023-05-22T02:40:07;99356.00;;;14.46;nan
9189;BME280;34313;50.780;6.084;2023-05-22T02:42:33;99356.34;;;14.42;nan
9189;BME280;34313;50.780;6.084;2023-05-22T02:44:58;99351.97;;;14.41;nan
9189;BME280;34313;50.780;6.084;2023-05-22T02:47:24;99347.16;;;14.34;nan
9189;BME280;34313;50.780;6.084;2023-05-22T02:49:49;99349.09;;;14.32;nan
9189;BME280;34313;50.780;6.084;2023-05-22T02:52:15;99338.44;;;14.21;nan
9189;BME280;34313;50.780;6.084;2023-05-22T02:54:40;99344.59;;;14.22;nan
9189;BME280;34313;50.780;6.084;2023-05-22T02:57:05;99350.88;;;14.21;nan
9189;BME280;34313;50.780;6.084;2023-05-22T02:59:31;99349.41;;;14.16;nan
9189;BME280;34313;50.780;6.084;2023-05-22T03:01:57;99354.81;;;14.15;nan
9189;BME280;34313;50.780;6.084;2023-05-22T03:04:22;99349.88;;;14.10;nan
9189;BME280;34313;50.780;6.084;2023-05-22T03:06:48;99351.78;;;14.08;nan
9189;BME280;34313;50.780;6.084;2023-05-22T03:09:14;99334.16;;;13.96;nan
9189;BME280;34313;50.780;6.084;2023-05-22T03:11:40;99346.94;;;14.02;nan
9189;BME280;34313;50.780;6.084;2023-05-22T03:14:05;99344.41;;;14.00;nan
9189;BME280;34313;50.780;6.084;2023-05-22T03:16:30;99348.53;;;14.05;nan
9189;BME280;34313;50.780;6.084;2023-05-22T03:19:26;99348.63;;;14.03;nan
9189;BME280;34313;50.780;6.084;2023-05-22T03:21:51;99344.22;;;14.15;nan
9189;BME280;34313;50.780;6.084;2023-05-22T03:24:17;99347.84;;;14.25;nan
9189;BME280;34313;50.780;6.084;2023-05-22T03:26:42;99340.88;;;14.35;nan
9189;BME280;34313;50.780;6.084;2023-05-22T03:29:08;99343.09;;;14.42;nan
9189;BME280;34313;50.780;6.084;2023-05-22T03:31:33;99342.84;;;14.45;nan
9189;BME280;34313;50.780;6.084;2023-05-22T03:33:59;99344.19;;;14.50;nan
9189;BME280;34313;50.780;6.084;2023-05-22T03:36:24;99347.72;;;14.62;nan
9189;BME280;34313;50.780;6.084;2023-05-22T03:38:50;99343.38;;;14.72;nan
9189;BME280;34313;50.780;6.084;2023-05-22T03:41:16;99345.56;;;14.79;nan
9189;BME280;34313;50.780;6.084;2023-05-22T03:43:42;99345.44;;;14.91;nan
9189;BME280;34313;50.780;6.084;2023-05-22T03:46:07;99344.47;;;14.92;nan
9189;BME280;34313;50.780;6.084;2023-05-22T03:48:35;99345.56;;;15.01;nan
9189;BME280;34313;50.780;6.084;2023-05-22T03:51:00;99344.72;;;15.01;nan
9189;BME280;34313;50.780;6.084;2023-05-22T03:53:25;99340.00;;;15.04;nan
9189;BME280;34313;50.780;6.084;2023-05-22T03:55:51;99345.06;;;15.07;nan
9189;BME280;34313;50.780;6.084;2023-05-22T03:58:16;99346.53;;;15.11;nan
9189;BME280;34313;50.780;6.084;2023-05-22T04:00:41;99354.47;;;15.11;nan
9189;BME280;34313;50.780;6.084;2023-05-22T04:03:06;99350.84;;;15.12;nan
9189;BME280;34313;50.780;6.084;2023-05-22T04:05:37;99350.25;;;15.20;nan
9189;BME280;34313;50.780;6.084;2023-05-22T04:08:03;99348.19;;;15.24;nan
9189;BME280;34313;50.780;6.084;2023-05-22T04:10:28;99342.13;;;15.33;nan
9189;BME280;34313;50.780;6.084;2023-05-22T04:12:53;99340.81;;;15.27;nan
9189;BME280;34313;50.780;6.084;2023-05-22T04:15:19;99338.41;;;15.24;nan
9189;BME280;34313;50.780;6.084;2023-05-22T04:17:45;99331.75;;;15.30;nan
9189;BME280;34313;50.780;6.084;2023-05-22T04:20:11;99336.59;;;15.36;nan
9189;BME280;34313;50.780;6.084;2023-05-22T04:22:37;99349.34;;;15.42;nan
9189;BME280;34313;50.780;6.084;2023-05-22T04:25:02;99351.78;;;15.45;nan
9189;BME280;34313;50.780;6.084;2023-05-22T04:27:28;99344.63;;;15.46;nan
9189;BME280;34313;50.780;6.084;2023-05-22T04:29:54;99355.53;;;15.43;nan
9189;BME280;34313;50.780;6.084;2023-05-22T04:32:19;99350.06;;;15.44;nan
9189;BME280;34313;50.780;6.084;2023-05-22T04:34:47;99356.59;;;15.40;nan
9189;BME280;34313;50.780;6.084;2023-05-22T04:37:13;99361.69;;;15.43;nan
9189;BME280;34313;50.780;6.084;2023-05-22T04:39:45;99371.06;;;15.47;nan
9189;BME280;34313;50.780;6.084;2023-05-22T04:42:13;99367.22;;;15.52;nan
9189;BME280;34313;50.780;6.084;2023-05-22T04:44:40;99372.78;;;15.48;nan
9189;BME280;34313;50.780;6.084;2023-05-22T04:47:06;99373.13;;;15.44;nan
9189;BME280;34313;50.780;6.084;2023-05-22T04:49:36;99370.13;;;15.48;nan
9189;BME280;34313;50.780;6.084;2023-05-22T04:52:01;99370.59;;;15.54;nan
9189;BME280;34313;50.780;6.084;2023-05-22T04:54:28;99371.66;;;15.51;nan
9189;BME280;34313;50.780;6.084;2023-05-22T04:56:54;99380.22;;;15.55;nan
9189;BME280;34313;50.780;6.084;2023-05-22T04:59:19;99367.06;;;15.53;nan
9189;BME280;34313;50.780;6.084;2023-05-22T05:01:48;99379.28;;;15.56;nan
9189;BME280;34313;50.780;6.084;2023-05-22T05:04:14;99374.69;;;15.58;nan
9189;BME280;34313;50.780;6.084;2023-05-22T05:06:40;99375.38;;;15.60;nan
9189;BME280;34313;50.780;6.084;2023-05-22T05:09:07;99370.78;;;15.62;nan
9189;BME280;34313;50.780;6.084;2023-05-22T05:11:33;99374.38;;;15.72;nan
9189;BME280;34313;50.780;6.084;2023-05-22T05:13:58;99376.34;;;15.81;nan
9189;BME280;34313;50.780;6.084;2023-05-22T05:16:24;99384.03;;;15.84;nan
9189;BME280;34313;50.780;6.084;2023-05-22T05:18:50;99382.84;;;15.88;nan
9189;BME280;34313;50.780;6.084;2023-05-22T05:21:16;99378.06;;;16.03;nan
9189;BME280;34313;50.780;6.084;2023-05-22T05:23:41;99375.53;;;16.02;nan
9189;BME280;34313;50.780;6.084;2023-05-22T05:26:07;99379.88;;;16.03;nan
9189;BME280;34313;50.780;6.084;2023-05-22T05:28:32;99379.63;;;16.06;nan
9189;BME280;34313;50.780;6.084;2023-05-22T05:30:57;99386.38;;;16.10;nan
9189;BME280;34313;50.780;6.084;2023-05-22T05:33:23;99383.00;;;16.08;nan
9189;BME280;34313;50.780;6.084;2023-05-22T05:35:48;99390.00;;;16.09;nan
9189;BME280;34313;50.780;6.084;2023-05-22T05:38:14;99387.47;;;16.07;nan
9189;BME280;34313;50.780;6.084;2023-05-22T05:40:41;99383.97;;;16.07;nan
9189;BME280;34313;50.780;6.084;2023-05-22T05:43:07;99379.47;;;16.07;nan
9189;BME280;34313;50.780;6.084;2023-05-22T05:45:33;99388.44;;;16.06;nan
9189;BME280;34313;50.780;6.084;2023-05-22T05:47:58;99394.09;;;16.13;nan
9189;BME280;34313;50.780;6.084;2023-05-22T05:50:23;99389.50;;;16.15;nan
9189;BME280;34313;50.780;6.084;2023-05-22T05:52:49;99390.34;;;16.16;nan
9189;BME280;34313;50.780;6.084;2023-05-22T05:55:14;99388.72;;;16.24;nan
9189;BME280;34313;50.780;6.084;2023-05-22T05:57:39;99394.84;;;16.36;nan
9189;BME280;34313;50.780;6.084;2023-05-22T06:00:05;99395.16;;;16.43;nan
9189;BME280;34313;50.780;6.084;2023-05-22T06:02:34;99386.66;;;16.49;nan
9189;BME280;34313;50.780;6.084;2023-05-22T06:05:00;99394.44;;;16.62;nan
9189;BME280;34313;50.780;6.084;2023-05-22T06:07:26;99393.19;;;16.66;nan
9189;BME280;34313;50.780;6.084;2023-05-22T06:09:52;99395.31;;;16.72;nan
9189;BME280;34313;50.780;6.084;2023-05-22T06:12:17;99401.84;;;16.79;nan
9189;BME280;34313;50.780;6.084;2023-05-22T06:14:43;99409.44;;;16.84;nan
9189;BME280;34313;50.780;6.084;2023-05-22T06:17:08;99405.25;;;16.70;nan
9189;BME280;34313;50.780;6.084;2023-05-22T06:19:34;99405.50;;;16.67;nan
9189;BME280;34313;50.780;6.084;2023-05-22T06:21:59;99405.97;;;16.51;nan
9189;BME280;34313;50.780;6.084;2023-05-22T06:24:24;99415.47;;;16.65;nan
9189;BME280;34313;50.780;6.084;2023-05-22T06:26:50;99418.31;;;16.73;nan
9189;BME280;34313;50.780;6.084;2023-05-22T06:29:16;99414.84;;;16.82;nan
9189;BME280;34313;50.780;6.084;2023-05-22T06:31:41;99401.69;;;16.81;nan
9189;BME280;34313;50.780;6.084;2023-05-22T06:34:06;99419.28;;;16.93;nan
9189;BME280;34313;50.780;6.084;2023-05-22T06:36:32;99420.03;;;16.95;nan
9189;BME280;34313;50.780;6.084;2023-05-22T06:38:59;99421.31;;;17.01;nan
9189;BME280;34313;50.780;6.084;2023-05-22T06:41:24;99421.50;;;17.09;nan
9189;BME280;34313;50.780;6.084;2023-05-22T06:43:50;99418.97;;;17.08;nan
9189;BME280;34313;50.780;6.084;2023-05-22T06:46:15;99430.47;;;17.18;nan
9189;BME280;34313;50.780;6.084;2023-05-22T06:48:41;99415.38;;;17.18;nan
9189;BME280;34313;50.780;6.084;2023-05-22T06:51:06;99428.56;;;17.30;nan
9189;BME280;34313;50.780;6.084;2023-05-22T06:53:34;99430.59;;;17.37;nan
9189;BME280;34313;50.780;6.084;2023-05-22T06:56:00;99425.44;;;17.55;nan
9189;BME280;34313;50.780;6.084;2023-05-22T06:58:25;99432.09;;;17.81;nan
9189;BME280;34313;50.780;6.084;2023-05-22T07:00:51;99423.88;;;17.93;nan
9189;BME280;34313;50.780;6.084;2023-05-22T07:03:17;99432.16;;;18.20;nan
9189;BME280;34313;50.780;6.084;2023-05-22T07:05:43;99440.03;;;18.41;nan
9189;BME280;34313;50.780;6.084;2023-05-22T07:08:08;99439.00;;;18.61;nan
9189;BME280;34313;50.780;6.084;2023-05-22T07:10:34;99439.28;;;18.68;nan
9189;BME280;34313;50.780;6.084;2023-05-22T07:12:59;99440.72;;;18.82;nan
9189;BME280;34313;50.780;6.084;2023-05-22T07:15:24;99441.13;;;18.87;nan
9189;BME280;34313;50.780;6.084;2023-05-22T07:17:50;99441.81;;;18.89;nan
9189;BME280;34313;50.780;6.084;2023-05-22T07:20:15;99443.94;;;18.85;nan
9189;BME280;34313;50.780;6.084;2023-05-22T07:22:41;99447.84;;;18.91;nan
9189;BME280;34313;50.780;6.084;2023-05-22T07:25:07;99449.94;;;18.97;nan
9189;BME280;34313;50.780;6.084;2023-05-22T07:27:32;99459.13;;;18.85;nan
9189;BME280;34313;50.780;6.084;2023-05-22T07:29:58;99458.97;;;18.86;nan
9189;BME280;34313;50.780;6.084;2023-05-22T07:32:23;99458.53;;;18.91;nan
9189;BME280;34313;50.780;6.084;2023-05-22T07:34:48;99466.06;;;19.05;nan
9189;BME280;34313;50.780;6.084;2023-05-22T07:37:14;99460.50;;;18.89;nan
9189;BME280;34313;50.780;6.084;2023-05-22T07:39:39;99464.56;;;19.03;nan
9189;BME280;34313;50.780;6.084;2023-05-22T07:42:05;99467.78;;;19.06;nan
9189;BME280;34313;50.780;6.084;2023-05-22T07:44:30;99466.66;;;18.99;nan
9189;BME280;34313;50.780;6.084;2023-05-22T07:46:56;99460.44;;;19.08;nan
9189;BME280;34313;50.780;6.084;2023-05-22T07:49:25;99460.59;;;19.07;nan
9189;BME280;34313;50.780;6.084;2023-05-22T07:51:51;99460.44;;;19.18;nan
9189;BME280;34313;50.780;6.084;2023-05-22T07:54:17;99469.94;;;19.31;nan
9189;BME280;34313;50.780;6.084;2023-05-22T07:56:43;99464.31;;;19.34;nan
9189;BME280;34313;50.780;6.084;2023-05-22T07:59:10;99464.88;;;19.37;nan
9189;BME280;34313;50.780;6.084;2023-05-22T08:01:37;99468.53;;;19.36;nan
9189;BME280;34313;50.780;6.084;2023-05-22T08:04:03;99469.63;;;19.43;nan
9189;BME280;34313;50.780;6.084;2023-05-22T08:06:29;99476.88;;;19.51;nan
9189;BME280;34313;50.780;6.084;2023-05-22T08:08:55;99467.59;;;19.55;nan
9189;BME280;34313;50.780;6.084;2023-05-22T08:11:20;99473.13;;;19.72;nan
9189;BME280;34313;50.780;6.084;2023-05-22T08:13:46;99480.63;;;19.68;nan
9189;BME280;34313;50.780;6.084;2023-05-22T08:16:11;99479.00;;;19.48;nan
9189;BME280;34313;50.780;6.084;2023-05-22T08:18:37;99476.75;;;19.53;nan
9189;BME280;34313;50.780;6.084;2023-05-22T08:21:02;99464.53;;;19.50;nan
9189;BME280;34313;50.780;6.084;2023-05-22T08:23:27;99485.78;;;19.42;nan
9189;BME280;34313;50.780;6.084;2023-05-22T08:25:54;99477.44;;;19.17;nan
9189;BME280;34313;50.780;6.084;2023-05-22T08:28:20;99487.09;;;19.28;nan
9189;BME280;34313;50.780;6.084;2023-05-22T08:30:45;99479.09;;;19.28;nan
9189;BME280;34313;50.780;6.084;2023-05-22T08:33:11;99492.50;;;19.08;nan
9189;BME280;34313;50.780;6.084;2023-05-22T08:35:36;99495.78;;;19.02;nan
9189;BME280;34313;50.780;6.084;2023-05-22T08:38:01;99485.50;;;18.98;nan
9189;BME280;34313;50.780;6.084;2023-05-22T08:40:34;99495.78;;;19.02;nan
9189;BME280;34313;50.780;6.084;2023-05-22T08:43:01;99498.25;;;19.14;nan
9189;BME280;34313;50.780;6.084;2023-05-22T08:45:26;99494.16;;;19.29;nan
9189;BME280;34313;50.780;6.084;2023-05-22T08:47:54;99491.75;;;19.26;nan
9189;BME280;34313;50.780;6.084;2023-05-22T08:50:23;99488.69;;;19.21;nan
9189;BME280;34313;50.780;6.084;2023-05-22T08:52:50;99498.25;;;19.14;nan
9189;BME280;34313;50.780;6.084;2023-05-22T08:55:16;99497.72;;;19.00;nan
9189;BME280;34313;50.780;6.084;2023-05-22T08:57:44;99498.03;;;18.97;nan
9189;BME280;34313;50.780;6.084;2023-05-22T09:00:10;99499.97;;;19.05;nan
9189;BME280;34313;50.780;6.084;2023-05-22T09:02:37;99499.97;;;19.05;nan
9189;BME280;34313;50.780;6.084;2023-05-22T09:05:03;99500.38;;;19.10;nan
9189;BME280;34313;50.780;6.084;2023-05-22T09:07:31;99485.47;;;19.17;nan
9189;BME280;34313;50.780;6.084;2023-05-22T09:09:56;99508.22;;;19.21;nan
9189;BME280;34313;50.780;6.084;2023-05-22T09:12:21;99503.59;;;19.23;nan
9189;BME280;34313;50.780;6.084;2023-05-22T09:14:47;99509.22;;;19.11;nan
9189;BME280;34313;50.780;6.084;2023-05-22T09:17:15;99507.66;;;19.27;nan
9189;BME280;34313;50.780;6.084;2023-05-22T09:19:44;99496.13;;;19.27;nan
9189;BME280;34313;50.780;6.084;2023-05-22T09:22:11;99510.31;;;19.27;nan
9189;BME280;34313;50.780;6.084;2023-05-22T09:24:37;99505.38;;;19.33;nan
9189;BME280;34313;50.780;6.084;2023-05-22T09:27:07;99499.38;;;19.58;nan
9189;BME280;34313;50.780;6.084;2023-05-22T09:29:55;99498.44;;;19.87;nan
9189;BME280;34313;50.780;6.084;2023-05-22T09:32:21;99494.25;;;20.02;nan
9189;BME280;34313;50.780;6.084;2023-05-22T09:34:46;99489.75;;;20.03;nan
9189;BME280;34313;50.780;6.084;2023-05-22T09:37:13;99497.56;;;20.32;nan
9189;BME280;34313;50.780;6.084;2023-05-22T09:39:47;99503.84;;;20.41;nan
9189;BME280;34313;50.780;6.084;2023-05-22T09:42:15;99502.25;;;20.48;nan
9189;BME280;34313;50.780;6.084;2023-05-22T09:44:42;99502.69;;;20.44;nan
9189;BME280;34313;50.780;6.084;2023-05-22T09:47:11;99499.31;;;20.42;nan
9189;BME280;34313;50.780;6.084;2023-05-22T09:49:41;99499.94;;;20.53;nan
9189;BME280;34313;50.780;6.084;2023-05-22T09:52:08;99504.09;;;20.66;nan
9189;BME280;34313;50.780;6.084;2023-05-22T09:54:34;99503.09;;;20.67;nan
9189;BME280;34313;50.780;6.084;2023-05-22T09:57:00;99509.25;;;20.31;nan
9189;BME280;34313;50.780;6.084;2023-05-22T09:59:30;99515.09;;;20.27;nan
9189;BME280;34313;50.780;6.084;2023-05-22T10:01:57;99507.25;;;20.15;nan
9189;BME280;34313;50.780;6.084;2023-05-22T10:04:24;99498.88;;;20.46;nan
9189;BME280;34313;50.780;6.084;2023-05-22T10:06:53;99508.63;;;20.65;nan
9189;BME280;34313;50.780;6.084;2023-05-22T10:09:22;99508.44;;;20.85;nan
9189;BME280;34313;50.780;6.084;2023-05-22T10:11:52;99514.00;;;20.91;nan
9189;BME280;34313;50.780;6.084;2023-05-22T10:14:19;99514.56;;;20.95;nan
9189;BME280;34313;50.780;6.084;2023-05-22T10:16:44;99511.25;;;21.01;nan
9189;BME280;34313;50.780;6.084;2023-05-22T10:19:11;99509.75;;;21.07;nan
9189;BME280;34313;50.780;6.084;2023-05-22T10:21:37;99510.28;;;21.10;nan
9189;BME280;34313;50.780;6.084;2023-05-22T10:24:05;99507.88;;;20.99;nan
9189;BME280;34313;50.780;6.084;2023-05-22T10:26:31;99504.03;;;21.02;nan
9189;BME280;34313;50.780;6.084;2023-05-22T10:29:05;99508.66;;;21.18;nan
9189;BME280;34313;50.780;6.084;2023-05-22T10:35:07;99499.19;;;21.31;nan
9189;BME280;34313;50.780;6.084;2023-05-22T10:37:52;99501.19;;;21.29;nan
9189;BME280;34313;50.780;6.084;2023-05-22T10:40:25;99492.03;;;21.32;nan
9189;BME280;34313;50.780;6.084;2023-05-22T10:43:00;99502.91;;;21.30;nan
9189;BME280;34313;50.780;6.084;2023-05-22T10:45:27;99497.78;;;21.19;nan
9189;BME280;34313;50.780;6.084;2023-05-22T10:48:09;99501.19;;;21.03;nan
9189;BME280;34313;50.780;6.084;2023-05-22T10:50:36;99500.53;;;21.01;nan
9189;BME280;34313;50.780;6.084;2023-05-22T10:53:22;99498.13;;;21.16;nan
9189;BME280;34313;50.780;6.084;2023-05-22T10:55:55;99499.84;;;21.25;nan
9189;BME280;34313;50.780;6.084;2023-05-22T10:58:32;99487.34;;;21.34;nan
9189;BME280;34313;50.780;6.084;2023-05-22T11:01:24;99495.41;;;21.42;nan
9189;BME280;34313;50.780;6.084;2023-05-22T11:07:02;99496.94;;;21.19;nan
9189;BME280;34313;50.780;6.084;2023-05-22T11:09:39;99496.53;;;21.58;nan
9189;BME280;34313;50.780;6.084;2023-05-22T11:12:16;99488.41;;;21.84;nan
9189;BME280;34313;50.780;6.084;2023-05-22T11:15:06;99493.34;;;22.05;nan
9189;BME280;34313;50.780;6.084;2023-05-22T11:17:33;99494.88;;;22.07;nan
9189;BME280;34313;50.780;6.084;2023-05-22T11:20:02;99494.91;;;22.24;nan
9189;BME280;34313;50.780;6.084;2023-05-22T11:22:37;99489.97;;;22.03;nan
9189;BME280;34313;50.780;6.084;2023-05-22T11:25:14;99485.66;;;22.18;nan
9189;BME280;34313;50.780;6.084;2023-05-22T11:27:40;99487.31;;;22.11;nan
9189;BME280;34313;50.780;6.084;2023-05-22T11:30:07;99486.56;;;22.35;nan
9189;BME280;34313;50.780;6.084;2023-05-22T11:32:37;99486.25;;;22.55;nan
9189;BME280;34313;50.780;6.084;2023-05-22T11:35:03;99483.88;;;22.76;nan
9189;BME280;34313;50.780;6.084;2023-05-22T11:37:36;99480.19;;;22.94;nan
9189;BME280;34313;50.780;6.084;2023-05-22T11:40:03;99489.59;;;22.90;nan
9189;BME280;34313;50.780;6.084;2023-05-22T11:42:29;99495.16;;;22.88;nan
9189;BME280;34313;50.780;6.084;2023-05-22T11:44:55;99489.06;;;23.27;nan
9189;BME280;34313;50.780;6.084;2023-05-22T11:47:21;99490.63;;;22.64;nan
9189;BME280;34313;50.780;6.084;2023-05-22T11:49:46;99489.44;;;22.83;nan
9189;BME280;34313;50.780;6.084;2023-05-22T11:52:12;99487.09;;;22.80;nan
9189;BME280;34313;50.780;6.084;2023-05-22T11:54:37;99472.47;;;22.66;nan
9189;BME280;34313;50.780;6.084;2023-05-22T11:57:06;99479.19;;;22.70;nan
9189;BME280;34313;50.780;6.084;2023-05-22T11:59:32;99483.22;;;22.74;nan
9189;BME280;34313;50.780;6.084;2023-05-22T12:01:58;99479.69;;;22.74;nan
9189;BME280;34313;50.780;6.084;2023-05-22T12:04:23;99486.91;;;22.65;nan
9189;BME280;34313;50.780;6.084;2023-05-22T12:06:49;99492.44;;;22.80;nan
9189;BME280;34313;50.780;6.084;2023-05-22T12:09:15;99488.59;;;23.07;nan
9189;BME280;34313;50.780;6.084;2023-05-22T12:11:45;99494.28;;;23.20;nan
9189;BME280;34313;50.780;6.084;2023-05-22T12:14:10;99478.06;;;23.45;nan
9189;BME280;34313;50.780;6.084;2023-05-22T12:16:36;99488.31;;;23.58;nan
9189;BME280;34313;50.780;6.084;2023-05-22T12:19:08;99481.31;;;23.72;nan
9189;BME280;34313;50.780;6.084;2023-05-22T12:21:37;99492.09;;;23.72;nan
9189;BME280;34313;50.780;6.084;2023-05-22T12:24:04;99496.72;;;23.55;nan
9189;BME280;34313;50.780;6.084;2023-05-22T12:26:30;99489.66;;;23.46;nan
9189;BME280;34313;50.780;6.084;2023-05-22T12:28:57;99487.78;;;23.54;nan
9189;BME280;34313;50.780;6.084;2023-05-22T12:31:23;99481.22;;;23.65;nan
9189;BME280;34313;50.780;6.084;2023-05-22T12:33:52;99491.00;;;23.97;nan
9189;BME280;34313;50.780;6.084;2023-05-22T12:36:18;99482.09;;;24.28;nan
9189;BME280;34313;50.780;6.084;2023-05-22T12:38:44;99482.59;;;24.47;nan
9189;BME280;34313;50.780;6.084;2023-05-22T12:41:09;99481.25;;;24.74;nan
9189;BME280;34313;50.780;6.084;2023-05-22T12:43:34;99485.53;;;23.83;nan
9189;BME280;34313;50.780;6.084;2023-05-22T12:46:00;99486.50;;;23.90;nan
9189;BME280;34313;50.780;6.084;2023-05-22T12:48:25;99485.63;;;23.97;nan
9189;BME280;34313;50.780;6.084;2023-05-22T12:50:51;99483.50;;;24.16;nan
9189;BME280;34313;50.780;6.084;2023-05-22T12:53:16;99475.59;;;24.38;nan
9189;BME280;34313;50.780;6.084;2023-05-22T12:55:42;99476.56;;;24.45;nan
9189;BME280;34313;50.780;6.084;2023-05-22T12:58:07;99465.97;;;24.43;nan
9189;BME280;34313;50.780;6.084;2023-05-22T13:00:33;99477.00;;;24.33;nan
9189;BME280;34313;50.780;6.084;2023-05-22T13:02:59;99475.78;;;24.36;nan
9189;BME280;34313;50.780;6.084;2023-05-22T13:05:25;99468.06;;;24.79;nan
9189;BME280;34313;50.780;6.084;2023-05-22T13:07:50;99456.44;;;24.79;nan
9189;BME280;34313;50.780;6.084;2023-05-22T13:10:17;99467.00;;;24.65;nan
9189;BME280;34313;50.780;6.084;2023-05-22T13:12:43;99459.75;;;24.43;nan
9189;BME280;34313;50.780;6.084;2023-05-22T13:15:11;99464.81;;;23.91;nan
9189;BME280;34313;50.780;6.084;2023-05-22T13:17:38;99467.75;;;24.05;nan
9189;BME280;34313;50.780;6.084;2023-05-22T13:20:04;99460.91;;;23.94;nan
9189;BME280;34313;50.780;6.084;2023-05-22T13:22:30;99469.38;;;23.74;nan
9189;BME280;34313;50.780;6.084;2023-05-22T13:24:55;99467.88;;;24.11;nan
9189;BME280;34313;50.780;6.084;2023-05-22T13:27:21;99463.31;;;24.35;nan
9189;BME280;34313;50.780;6.084;2023-05-22T13:29:46;99474.47;;;24.32;nan
9189;BME280;34313;50.780;6.084;2023-05-22T13:32:12;99465.06;;;24.28;nan
9189;BME280;34313;50.780;6.084;2023-05-22T13:34:39;99470.22;;;23.83;nan
9189;BME280;34313;50.780;6.084;2023-05-22T13:37:04;99474.47;;;23.69;nan
9189;BME280;34313;50.780;6.084;2023-05-22T13:39:30;99464.53;;;23.70;nan
9189;BME280;34313;50.780;6.084;2023-05-22T13:41:55;99466.56;;;23.68;nan
9189;BME280;34313;50.780;6.084;2023-05-22T13:44:20;99465.72;;;23.67;nan
9189;BME280;34313;50.780;6.084;2023-05-22T13:46:46;99462.91;;;23.52;nan
9189;BME280;34313;50.780;6.084;2023-05-22T13:49:11;99472.78;;;23.68;nan
9189;BME280;34313;50.780;6.084;2023-05-22T13:51:36;99473.91;;;23.82;nan
9189;BME280;34313;50.780;6.084;2023-05-22T13:54:02;99471.06;;;23.84;nan
9189;BME280;34313;50.780;6.084;2023-05-22T13:56:28;99473.56;;;23.77;nan